sensor_id;sensor_type;location;lat;lon;timestamp;P1;durP1;ratioP1;P2;durP2;ratioP2
29314;SDS011;16320;53.954;9.506;2023-02-03T00:01:59;59.55;;;13.95;;
29314;SDS011;16320;53.954;9.506;2023-02-03T00:05:05;52.10;;;9.55;;
29314;SDS011;16320;53.954;9.506;2023-02-03T00:08:10;45.20;;;9.23;;
29314;SDS011;16320;53.954;9.506;2023-02-03T00:11:15;50.35;;;8.82;;
29314;SDS011;16320;53.954;9.506;2023-02-03T00:14:20;45.92;;;8.95;;
29314;SDS011;16320;53.954;9.506;2023-02-03T00:17:24;47.95;;;8.00;;
29314;SDS011;16320;53.954;9.506;2023-02-03T00:20:30;50.60;;;8.55;;
29314;SDS011;16320;53.954;9.506;2023-02-03T00:23:34;35.17;;;7.82;;
29314;SDS011;16320;53.954;9.506;2023-02-03T00:26:41;58.92;;;8.13;;
29314;SDS011;16320;53.954;9.506;2023-02-03T00:29:46;62.00;;;9.63;;
29314;SDS011;16320;53.954;9.506;2023-02-03T00:32:50;41.50;;;5.38;;
29314;SDS011;16320;53.954;9.506;2023-02-03T00:35:55;50.72;;;6.93;;
29314;SDS011;16320;53.954;9.506;2023-02-03T00:38:59;43.75;;;7.10;;
29314;SDS011;16320;53.954;9.506;2023-02-03T00:42:04;41.75;;;6.70;;
29314;SDS011;16320;53.954;9.506;2023-02-03T00:45:09;34.25;;;6.90;;
29314;SDS011;16320;53.954;9.506;2023-02-03T00:48:14;51.03;;;6.68;;
29314;SDS011;16320;53.954;9.506;2023-02-03T00:51:18;52.38;;;8.30;;
29314;SDS011;16320;53.954;9.506;2023-02-03T00:54:24;41.17;;;5.97;;
29314;SDS011;16320;53.954;9.506;2023-02-03T00:57:28;52.10;;;7.97;;
29314;SDS011;16320;53.954;9.506;2023-02-03T01:00:33;42.47;;;5.68;;
29314;SDS011;16320;53.954;9.506;2023-02-03T01:03:37;35.78;;;5.38;;
29314;SDS011;16320;53.954;9.506;2023-02-03T01:06:42;36.40;;;5.18;;
29314;SDS011;16320;53.954;9.506;2023-02-03T01:09:46;44.63;;;7.07;;
29314;SDS011;16320;53.954;9.506;2023-02-03T01:12:50;35.42;;;5.60;;
29314;SDS011;16320;53.954;9.506;2023-02-03T01:15:55;43.42;;;4.85;;
29314;SDS011;16320;53.954;9.506;2023-02-03T01:18:59;33.75;;;5.00;;
29314;SDS011;16320;53.954;9.506;2023-02-03T01:22:05;34.60;;;4.88;;
29314;SDS011;16320;53.954;9.506;2023-02-03T01:25:09;29.27;;;4.28;;
29314;SDS011;16320;53.954;9.506;2023-02-03T01:28:13;39.40;;;6.47;;
29314;SDS011;16320;53.954;9.506;2023-02-03T01:31:18;38.78;;;6.35;;
29314;SDS011;16320;53.954;9.506;2023-02-03T01:34:27;44.47;;;4.75;;
29314;SDS011;16320;53.954;9.506;2023-02-03T01:37:31;40.20;;;4.90;;
29314;SDS011;16320;53.954;9.506;2023-02-03T01:43:48;41.65;;;5.05;;
29314;SDS011;16320;53.954;9.506;2023-02-03T01:46:55;39.42;;;4.85;;
29314;SDS011;16320;53.954;9.506;2023-02-03T01:53:24;42.08;;;5.25;;
29314;SDS011;16320;53.954;9.506;2023-02-03T01:56:29;35.47;;;5.78;;
29314;SDS011;16320;53.954;9.506;2023-02-03T01:59:38;32.00;;;4.75;;
29314;SDS011;16320;53.954;9.506;2023-02-03T02:02:44;29.20;;;4.38;;
29314;SDS011;16320;53.954;9.506;2023-02-03T02:05:55;37.53;;;4.57;;
29314;SDS011;16320;53.954;9.506;2023-02-03T02:09:13;34.97;;;5.07;;
29314;SDS011;16320;53.954;9.506;2023-02-03T02:12:18;27.92;;;3.97;;
29314;SDS011;16320;53.954;9.506;2023-02-03T02:15:24;30.38;;;5.18;;
29314;SDS011;16320;53.954;9.506;2023-02-03T02:24:07;29.45;;;3.80;;
29314;SDS011;16320;53.954;9.506;2023-02-03T02:33:58;21.58;;;3.67;;
29314;SDS011;16320;53.954;9.506;2023-02-03T02:37:29;34.08;;;3.90;;
29314;SDS011;16320;53.954;9.506;2023-02-03T02:40:52;15.20;;;3.40;;
29314;SDS011;16320;53.954;9.506;2023-02-03T02:44:48;34.88;;;4.82;;
29314;SDS011;16320;53.954;9.506;2023-02-03T02:48:04;29.65;;;4.78;;
29314;SDS011;16320;53.954;9.506;2023-02-03T02:51:16;25.38;;;3.28;;
29314;SDS011;16320;53.954;9.506;2023-02-03T02:54:23;29.90;;;5.03;;
29314;SDS011;16320;53.954;9.506;2023-02-03T02:57:30;34.45;;;3.92;;
29314;SDS011;16320;53.954;9.506;2023-02-03T03:00:39;20.95;;;2.92;;
29314;SDS011;16320;53.954;9.506;2023-02-03T03:03:45;28.52;;;3.83;;
29314;SDS011;16320;53.954;9.506;2023-02-03T03:07:07;24.73;;;4.25;;
29314;SDS011;16320;53.954;9.506;2023-02-03T03:10:21;34.40;;;3.53;;
29314;SDS011;16320;53.954;9.506;2023-02-03T03:13:35;30.65;;;4.85;;
29314;SDS011;16320;53.954;9.506;2023-02-03T03:16:47;24.20;;;4.88;;
29314;SDS011;16320;53.954;9.506;2023-02-03T03:20:05;33.83;;;5.30;;
29314;SDS011;16320;53.954;9.506;2023-02-03T03:23:21;26.25;;;3.83;;
29314;SDS011;16320;53.954;9.506;2023-02-03T03:26:34;34.47;;;5.47;;
29314;SDS011;16320;53.954;9.506;2023-02-03T03:29:53;43.22;;;5.63;;
29314;SDS011;16320;53.954;9.506;2023-02-03T03:33:07;35.05;;;4.20;;
29314;SDS011;16320;53.954;9.506;2023-02-03T03:36:24;35.67;;;5.88;;
29314;SDS011;16320;53.954;9.506;2023-02-03T03:39:53;38.97;;;7.00;;
29314;SDS011;16320;53.954;9.506;2023-02-03T03:43:07;27.70;;;5.10;;
29314;SDS011;16320;53.954;9.506;2023-02-03T03:46:34;40.08;;;6.53;;
29314;SDS011;16320;53.954;9.506;2023-02-03T03:49:49;39.97;;;6.05;;
29314;SDS011;16320;53.954;9.506;2023-02-03T03:52:57;34.53;;;5.30;;
29314;SDS011;16320;53.954;9.506;2023-02-03T03:56:05;31.58;;;5.47;;
29314;SDS011;16320;53.954;9.506;2023-02-03T03:59:17;34.13;;;6.30;;
29314;SDS011;16320;53.954;9.506;2023-02-03T04:02:25;41.70;;;5.28;;
29314;SDS011;16320;53.954;9.506;2023-02-03T04:05:32;47.10;;;6.28;;
29314;SDS011;16320;53.954;9.506;2023-02-03T04:08:37;42.10;;;5.10;;
29314;SDS011;16320;53.954;9.506;2023-02-03T04:11:42;38.17;;;6.40;;
29314;SDS011;16320;53.954;9.506;2023-02-03T04:15:04;43.47;;;5.55;;
29314;SDS011;16320;53.954;9.506;2023-02-03T04:18:09;30.13;;;4.65;;
29314;SDS011;16320;53.954;9.506;2023-02-03T04:21:17;27.48;;;4.25;;
29314;SDS011;16320;53.954;9.506;2023-02-03T04:36:39;31.42;;;4.68;;
29314;SDS011;16320;53.954;9.506;2023-02-03T04:39:43;32.85;;;4.50;;
29314;SDS011;16320;53.954;9.506;2023-02-03T04:42:48;31.95;;;4.70;;
29314;SDS011;16320;53.954;9.506;2023-02-03T04:45:52;32.20;;;5.45;;
29314;SDS011;16320;53.954;9.506;2023-02-03T04:48:57;29.27;;;4.57;;
29314;SDS011;16320;53.954;9.506;2023-02-03T04:52:01;33.45;;;5.45;;
29314;SDS011;16320;53.954;9.506;2023-02-03T04:55:05;37.97;;;5.00;;
29314;SDS011;16320;53.954;9.506;2023-02-03T04:58:10;23.20;;;4.70;;
29314;SDS011;16320;53.954;9.506;2023-02-03T05:01:14;32.30;;;5.63;;
29314;SDS011;16320;53.954;9.506;2023-02-03T05:04:19;37.63;;;5.25;;
29314;SDS011;16320;53.954;9.506;2023-02-03T05:07:24;48.50;;;6.22;;
29314;SDS011;16320;53.954;9.506;2023-02-03T05:10:28;39.67;;;5.38;;
29314;SDS011;16320;53.954;9.506;2023-02-03T05:13:33;33.53;;;6.20;;
29314;SDS011;16320;53.954;9.506;2023-02-03T05:16:37;40.83;;;6.68;;
29314;SDS011;16320;53.954;9.506;2023-02-03T05:19:42;43.97;;;5.88;;
29314;SDS011;16320;53.954;9.506;2023-02-03T05:22:47;44.25;;;6.78;;
29314;SDS011;16320;53.954;9.506;2023-02-03T05:25:51;37.35;;;6.13;;
29314;SDS011;16320;53.954;9.506;2023-02-03T05:28:55;44.42;;;6.57;;
29314;SDS011;16320;53.954;9.506;2023-02-03T05:32:00;41.65;;;7.13;;
29314;SDS011;16320;53.954;9.506;2023-02-03T05:35:05;45.38;;;6.15;;
29314;SDS011;16320;53.954;9.506;2023-02-03T05:38:10;39.60;;;5.93;;
29314;SDS011;16320;53.954;9.506;2023-02-03T05:41:15;44.45;;;6.50;;
29314;SDS011;16320;53.954;9.506;2023-02-03T05:44:37;46.80;;;6.25;;
29314;SDS011;16320;53.954;9.506;2023-02-03T05:47:42;45.60;;;6.60;;
29314;SDS011;16320;53.954;9.506;2023-02-03T05:50:46;47.03;;;6.82;;
29314;SDS011;16320;53.954;9.506;2023-02-03T05:53:50;44.60;;;5.90;;
29314;SDS011;16320;53.954;9.506;2023-02-03T05:56:56;49.05;;;5.70;;
29314;SDS011;16320;53.954;9.506;2023-02-03T06:00:00;47.50;;;5.85;;
29314;SDS011;16320;53.954;9.506;2023-02-03T06:03:06;49.60;;;6.55;;
29314;SDS011;16320;53.954;9.506;2023-02-03T06:06:11;39.78;;;6.53;;
29314;SDS011;16320;53.954;9.506;2023-02-03T06:09:16;38.70;;;5.63;;
29314;SDS011;16320;53.954;9.506;2023-02-03T06:12:20;47.55;;;6.82;;
29314;SDS011;16320;53.954;9.506;2023-02-03T06:15:24;52.42;;;5.88;;
29314;SDS011;16320;53.954;9.506;2023-02-03T06:18:29;49.10;;;7.75;;
29314;SDS011;16320;53.954;9.506;2023-02-03T06:21:34;37.45;;;6.53;;
29314;SDS011;16320;53.954;9.506;2023-02-03T06:24:38;46.97;;;5.40;;
29314;SDS011;16320;53.954;9.506;2023-02-03T06:27:43;48.47;;;8.27;;
29314;SDS011;16320;53.954;9.506;2023-02-03T06:30:50;42.83;;;6.47;;
29314;SDS011;16320;53.954;9.506;2023-02-03T06:33:55;38.85;;;6.30;;
29314;SDS011;16320;53.954;9.506;2023-02-03T06:37:00;50.30;;;7.75;;
29314;SDS011;16320;53.954;9.506;2023-02-03T06:40:04;49.25;;;7.93;;
29314;SDS011;16320;53.954;9.506;2023-02-03T06:43:09;68.40;;;10.07;;
29314;SDS011;16320;53.954;9.506;2023-02-03T06:46:14;61.67;;;8.63;;
29314;SDS011;16320;53.954;9.506;2023-02-03T06:49:18;47.33;;;7.53;;
29314;SDS011;16320;53.954;9.506;2023-02-03T06:52:22;56.55;;;8.88;;
29314;SDS011;16320;53.954;9.506;2023-02-03T06:55:27;58.17;;;7.85;;
29314;SDS011;16320;53.954;9.506;2023-02-03T06:58:31;57.47;;;8.32;;
29314;SDS011;16320;53.954;9.506;2023-02-03T07:01:35;63.13;;;9.02;;
29314;SDS011;16320;53.954;9.506;2023-02-03T07:04:40;71.20;;;11.63;;
29314;SDS011;16320;53.954;9.506;2023-02-03T07:07:47;51.97;;;7.63;;
29314;SDS011;16320;53.954;9.506;2023-02-03T07:10:53;60.42;;;9.07;;
29314;SDS011;16320;53.954;9.506;2023-02-03T07:13:58;64.28;;;11.18;;
29314;SDS011;16320;53.954;9.506;2023-02-03T07:17:03;56.45;;;8.23;;
29314;SDS011;16320;53.954;9.506;2023-02-03T07:20:08;56.72;;;9.55;;
29314;SDS011;16320;53.954;9.506;2023-02-03T07:23:13;63.15;;;9.15;;
29314;SDS011;16320;53.954;9.506;2023-02-03T07:26:18;75.80;;;9.63;;
29314;SDS011;16320;53.954;9.506;2023-02-03T07:29:25;59.85;;;9.27;;
29314;SDS011;16320;53.954;9.506;2023-02-03T07:32:30;64.60;;;9.63;;
29314;SDS011;16320;53.954;9.506;2023-02-03T07:35:36;66.57;;;9.30;;
29314;SDS011;16320;53.954;9.506;2023-02-03T07:38:42;64.18;;;8.40;;
29314;SDS011;16320;53.954;9.506;2023-02-03T07:41:46;57.33;;;7.03;;
29314;SDS011;16320;53.954;9.506;2023-02-03T07:44:51;52.42;;;7.07;;
29314;SDS011;16320;53.954;9.506;2023-02-03T07:47:55;36.40;;;5.45;;
29314;SDS011;16320;53.954;9.506;2023-02-03T07:51:03;42.95;;;6.53;;
29314;SDS011;16320;53.954;9.506;2023-02-03T07:54:08;40.90;;;7.07;;
29314;SDS011;16320;53.954;9.506;2023-02-03T07:57:12;56.35;;;7.28;;
29314;SDS011;16320;53.954;9.506;2023-02-03T08:00:17;62.45;;;7.05;;
29314;SDS011;16320;53.954;9.506;2023-02-03T08:03:22;50.38;;;7.43;;
29314;SDS011;16320;53.954;9.506;2023-02-03T08:06:30;45.80;;;5.93;;
29314;SDS011;16320;53.954;9.506;2023-02-03T08:09:35;50.33;;;6.57;;
29314;SDS011;16320;53.954;9.506;2023-02-03T08:12:39;58.92;;;8.73;;
29314;SDS011;16320;53.954;9.506;2023-02-03T08:15:47;43.88;;;6.65;;
29314;SDS011;16320;53.954;9.506;2023-02-03T08:18:52;74.43;;;7.55;;
29314;SDS011;16320;53.954;9.506;2023-02-03T08:21:57;54.13;;;7.82;;
29314;SDS011;16320;53.954;9.506;2023-02-03T08:25:02;68.95;;;9.27;;
29314;SDS011;16320;53.954;9.506;2023-02-03T08:28:07;53.90;;;7.47;;
29314;SDS011;16320;53.954;9.506;2023-02-03T08:31:11;59.53;;;7.55;;
29314;SDS011;16320;53.954;9.506;2023-02-03T08:34:16;55.55;;;7.93;;
29314;SDS011;16320;53.954;9.506;2023-02-03T08:37:21;42.88;;;7.57;;
29314;SDS011;16320;53.954;9.506;2023-02-03T08:40:29;76.75;;;12.05;;
29314;SDS011;16320;53.954;9.506;2023-02-03T08:43:34;56.60;;;7.43;;
29314;SDS011;16320;53.954;9.506;2023-02-03T08:46:39;61.85;;;8.27;;
29314;SDS011;16320;53.954;9.506;2023-02-03T08:49:46;55.78;;;7.82;;
29314;SDS011;16320;53.954;9.506;2023-02-03T08:52:51;66.65;;;8.93;;
29314;SDS011;16320;53.954;9.506;2023-02-03T08:55:55;58.25;;;10.02;;
29314;SDS011;16320;53.954;9.506;2023-02-03T08:58:59;56.45;;;7.65;;
29314;SDS011;16320;53.954;9.506;2023-02-03T09:02:04;53.50;;;8.43;;
29314;SDS011;16320;53.954;9.506;2023-02-03T09:05:12;61.97;;;7.75;;
29314;SDS011;16320;53.954;9.506;2023-02-03T09:08:18;58.83;;;8.40;;
29314;SDS011;16320;53.954;9.506;2023-02-03T09:11:23;62.40;;;9.35;;
29314;SDS011;16320;53.954;9.506;2023-02-03T09:14:30;54.45;;;8.55;;
29314;SDS011;16320;53.954;9.506;2023-02-03T09:17:37;77.15;;;10.18;;
29314;SDS011;16320;53.954;9.506;2023-02-03T09:20:41;73.13;;;9.98;;
29314;SDS011;16320;53.954;9.506;2023-02-03T09:23:45;63.33;;;9.07;;
29314;SDS011;16320;53.954;9.506;2023-02-03T09:26:50;65.47;;;9.88;;
29314;SDS011;16320;53.954;9.506;2023-02-03T09:29:55;89.70;;;11.00;;
29314;SDS011;16320;53.954;9.506;2023-02-03T09:33:01;71.93;;;10.85;;
29314;SDS011;16320;53.954;9.506;2023-02-03T09:36:05;66.35;;;9.60;;
29314;SDS011;16320;53.954;9.506;2023-02-03T09:39:10;75.50;;;9.68;;
29314;SDS011;16320;53.954;9.506;2023-02-03T09:42:34;64.07;;;8.60;;
29314;SDS011;16320;53.954;9.506;2023-02-03T09:46:10;71.95;;;9.90;;
29314;SDS011;16320;53.954;9.506;2023-02-03T09:49:50;59.92;;;10.15;;
29314;SDS011;16320;53.954;9.506;2023-02-03T09:53:11;64.90;;;9.63;;
29314;SDS011;16320;53.954;9.506;2023-02-03T09:56:35;69.75;;;10.30;;
29314;SDS011;16320;53.954;9.506;2023-02-03T09:59:41;77.00;;;11.45;;
29314;SDS011;16320;53.954;9.506;2023-02-03T10:02:53;68.10;;;12.18;;
29314;SDS011;16320;53.954;9.506;2023-02-03T10:20:25;69.13;;;10.73;;
29314;SDS011;16320;53.954;9.506;2023-02-03T10:23:39;71.97;;;9.85;;
29314;SDS011;16320;53.954;9.506;2023-02-03T10:26:46;60.40;;;8.48;;
29314;SDS011;16320;53.954;9.506;2023-02-03T10:29:55;62.60;;;8.68;;
29314;SDS011;16320;53.954;9.506;2023-02-03T10:33:08;69.68;;;11.07;;
29314;SDS011;16320;53.954;9.506;2023-02-03T10:36:22;63.72;;;8.68;;
29314;SDS011;16320;53.954;9.506;2023-02-03T10:39:42;72.50;;;11.60;;
29314;SDS011;16320;53.954;9.506;2023-02-03T10:42:53;58.05;;;8.93;;
29314;SDS011;16320;53.954;9.506;2023-02-03T10:46:27;57.67;;;8.63;;
29314;SDS011;16320;53.954;9.506;2023-02-03T10:49:37;59.60;;;8.90;;
29314;SDS011;16320;53.954;9.506;2023-02-03T10:52:42;63.33;;;9.65;;
29314;SDS011;16320;53.954;9.506;2023-02-03T10:55:47;57.50;;;9.13;;
29314;SDS011;16320;53.954;9.506;2023-02-03T10:59:04;55.53;;;8.35;;
29314;SDS011;16320;53.954;9.506;2023-02-03T11:02:20;50.78;;;8.07;;
29314;SDS011;16320;53.954;9.506;2023-02-03T11:05:32;58.92;;;9.80;;
29314;SDS011;16320;53.954;9.506;2023-02-03T11:08:38;50.50;;;8.07;;
29314;SDS011;16320;53.954;9.506;2023-02-03T11:11:46;66.97;;;11.10;;
29314;SDS011;16320;53.954;9.506;2023-02-03T11:17:57;56.05;;;8.13;;
29314;SDS011;16320;53.954;9.506;2023-02-03T11:24:46;66.32;;;8.60;;
29314;SDS011;16320;53.954;9.506;2023-02-03T11:27:51;57.60;;;9.43;;
29314;SDS011;16320;53.954;9.506;2023-02-03T11:30:58;56.70;;;7.75;;
29314;SDS011;16320;53.954;9.506;2023-02-03T11:34:13;54.00;;;7.60;;
29314;SDS011;16320;53.954;9.506;2023-02-03T11:40:44;64.07;;;9.55;;
29314;SDS011;16320;53.954;9.506;2023-02-03T11:43:50;51.83;;;8.07;;
29314;SDS011;16320;53.954;9.506;2023-02-03T11:47:08;50.90;;;7.97;;
29314;SDS011;16320;53.954;9.506;2023-02-03T11:53:49;48.20;;;7.15;;
29314;SDS011;16320;53.954;9.506;2023-02-03T12:00:53;50.33;;;7.03;;
29314;SDS011;16320;53.954;9.506;2023-02-03T12:07:48;46.47;;;5.95;;
29314;SDS011;16320;53.954;9.506;2023-02-03T12:14:48;59.63;;;8.30;;
29314;SDS011;16320;53.954;9.506;2023-02-03T12:24:56;39.03;;;6.95;;
29314;SDS011;16320;53.954;9.506;2023-02-03T12:28:28;60.58;;;8.20;;
29314;SDS011;16320;53.954;9.506;2023-02-03T12:32:06;41.75;;;6.68;;
29314;SDS011;16320;53.954;9.506;2023-02-03T12:35:33;44.95;;;8.77;;
29314;SDS011;16320;53.954;9.506;2023-02-03T12:38:58;22.05;;;4.85;;
29314;SDS011;16320;53.954;9.506;2023-02-03T12:45:47;45.53;;;6.47;;
29314;SDS011;16320;53.954;9.506;2023-02-03T12:49:43;40.78;;;6.50;;
29314;SDS011;16320;53.954;9.506;2023-02-03T12:52:41;42.00;;;6.85;;
29314;SDS011;16320;53.954;9.506;2023-02-03T12:56:04;39.92;;;6.63;;
29314;SDS011;16320;53.954;9.506;2023-02-03T12:59:15;40.55;;;7.13;;
29314;SDS011;16320;53.954;9.506;2023-02-03T13:02:26;44.33;;;6.93;;
29314;SDS011;16320;53.954;9.506;2023-02-03T13:09:30;42.35;;;6.63;;
29314;SDS011;16320;53.954;9.506;2023-02-03T13:13:12;62.08;;;8.32;;
29314;SDS011;16320;53.954;9.506;2023-02-03T13:16:25;56.45;;;8.32;;
29314;SDS011;16320;53.954;9.506;2023-02-03T13:20:23;45.50;;;7.38;;
29314;SDS011;16320;53.954;9.506;2023-02-03T13:23:24;49.17;;;6.93;;
29314;SDS011;16320;53.954;9.506;2023-02-03T13:30:02;54.45;;;8.43;;
29314;SDS011;16320;53.954;9.506;2023-02-03T13:43:59;49.65;;;7.43;;
29314;SDS011;16320;53.954;9.506;2023-02-03T13:47:05;45.38;;;8.13;;
29314;SDS011;16320;53.954;9.506;2023-02-03T13:50:22;46.60;;;7.20;;
29314;SDS011;16320;53.954;9.506;2023-02-03T13:53:32;47.72;;;7.93;;
29314;SDS011;16320;53.954;9.506;2023-02-03T13:56:41;60.50;;;7.35;;
29314;SDS011;16320;53.954;9.506;2023-02-03T14:00:05;58.70;;;8.43;;
29314;SDS011;16320;53.954;9.506;2023-02-03T14:03:53;57.05;;;6.82;;
29314;SDS011;16320;53.954;9.506;2023-02-03T14:06:59;56.15;;;8.48;;
29314;SDS011;16320;53.954;9.506;2023-02-03T14:13:19;47.47;;;8.02;;
29314;SDS011;16320;53.954;9.506;2023-02-03T14:16:24;49.17;;;9.23;;
29314;SDS011;16320;53.954;9.506;2023-02-03T14:22:34;52.03;;;9.90;;
29314;SDS011;16320;53.954;9.506;2023-02-03T14:25:47;60.42;;;9.32;;
29314;SDS011;16320;53.954;9.506;2023-02-03T14:28:57;49.78;;;8.55;;
29314;SDS011;16320;53.954;9.506;2023-02-03T14:32:09;56.75;;;8.35;;
29314;SDS011;16320;53.954;9.506;2023-02-03T14:35:28;57.80;;;7.53;;
29314;SDS011;16320;53.954;9.506;2023-02-03T14:38:37;51.65;;;7.80;;
29314;SDS011;16320;53.954;9.506;2023-02-03T14:48:47;47.78;;;8.18;;
29314;SDS011;16320;53.954;9.506;2023-02-03T14:59:20;56.22;;;8.40;;
29314;SDS011;16320;53.954;9.506;2023-02-03T15:02:29;47.40;;;8.32;;
29314;SDS011;16320;53.954;9.506;2023-02-03T15:08:46;68.20;;;9.65;;
29314;SDS011;16320;53.954;9.506;2023-02-03T15:11:52;63.85;;;9.43;;
29314;SDS011;16320;53.954;9.506;2023-02-03T15:18:33;67.35;;;8.77;;
29314;SDS011;16320;53.954;9.506;2023-02-03T15:21:40;49.58;;;7.93;;
29314;SDS011;16320;53.954;9.506;2023-02-03T15:24:45;64.20;;;10.40;;
29314;SDS011;16320;53.954;9.506;2023-02-03T15:27:51;65.13;;;9.15;;
29314;SDS011;16320;53.954;9.506;2023-02-03T15:31:15;58.15;;;9.32;;
29314;SDS011;16320;53.954;9.506;2023-02-03T15:34:34;49.20;;;5.90;;
29314;SDS011;16320;53.954;9.506;2023-02-03T15:37:55;49.75;;;7.50;;
29314;SDS011;16320;53.954;9.506;2023-02-03T15:41:28;63.20;;;9.20;;
29314;SDS011;16320;53.954;9.506;2023-02-03T15:44:45;65.28;;;9.45;;
29314;SDS011;16320;53.954;9.506;2023-02-03T15:48:02;59.05;;;8.32;;
29314;SDS011;16320;53.954;9.506;2023-02-03T15:51:30;51.45;;;8.10;;
29314;SDS011;16320;53.954;9.506;2023-02-03T15:55:14;70.50;;;9.25;;
29314;SDS011;16320;53.954;9.506;2023-02-03T15:58:44;65.78;;;9.45;;
29314;SDS011;16320;53.954;9.506;2023-02-03T16:01:50;69.13;;;10.77;;
29314;SDS011;16320;53.954;9.506;2023-02-03T16:04:56;56.85;;;9.10;;
29314;SDS011;16320;53.954;9.506;2023-02-03T16:11:39;57.47;;;8.20;;
29314;SDS011;16320;53.954;9.506;2023-02-03T16:14:44;54.78;;;7.57;;
29314;SDS011;16320;53.954;9.506;2023-02-03T16:17:53;60.97;;;8.90;;
29314;SDS011;16320;53.954;9.506;2023-02-03T16:21:00;61.70;;;9.45;;
29314;SDS011;16320;53.954;9.506;2023-02-03T16:24:26;59.53;;;7.75;;
29314;SDS011;16320;53.954;9.506;2023-02-03T16:27:44;51.58;;;7.82;;
29314;SDS011;16320;53.954;9.506;2023-02-03T16:31:23;66.40;;;8.27;;
29314;SDS011;16320;53.954;9.506;2023-02-03T16:34:46;71.55;;;9.82;;
29314;SDS011;16320;53.954;9.506;2023-02-03T16:38:18;61.20;;;8.93;;
29314;SDS011;16320;53.954;9.506;2023-02-03T16:41:41;66.18;;;8.77;;
29314;SDS011;16320;53.954;9.506;2023-02-03T16:45:15;61.30;;;9.82;;
29314;SDS011;16320;53.954;9.506;2023-02-03T16:48:39;66.90;;;8.48;;
29314;SDS011;16320;53.954;9.506;2023-02-03T16:52:03;58.50;;;9.73;;
29314;SDS011;16320;53.954;9.506;2023-02-03T16:55:09;67.05;;;9.60;;
29314;SDS011;16320;53.954;9.506;2023-02-03T16:58:13;66.45;;;11.98;;
29314;SDS011;16320;53.954;9.506;2023-02-03T17:01:19;69.97;;;11.57;;
29314;SDS011;16320;53.954;9.506;2023-02-03T17:04:23;83.15;;;10.45;;
29314;SDS011;16320;53.954;9.506;2023-02-03T17:07:28;83.38;;;11.18;;
29314;SDS011;16320;53.954;9.506;2023-02-03T17:10:33;80.45;;;11.00;;
29314;SDS011;16320;53.954;9.506;2023-02-03T17:13:39;78.45;;;12.10;;
29314;SDS011;16320;53.954;9.506;2023-02-03T17:16:45;94.60;;;15.55;;
29314;SDS011;16320;53.954;9.506;2023-02-03T17:19:49;58.67;;;8.60;;
29314;SDS011;16320;53.954;9.506;2023-02-03T17:22:54;76.05;;;12.23;;
29314;SDS011;16320;53.954;9.506;2023-02-03T17:25:58;76.05;;;9.65;;
29314;SDS011;16320;53.954;9.506;2023-02-03T17:29:03;81.65;;;9.73;;
29314;SDS011;16320;53.954;9.506;2023-02-03T17:32:08;76.93;;;9.45;;
29314;SDS011;16320;53.954;9.506;2023-02-03T17:35:15;57.42;;;8.65;;
29314;SDS011;16320;53.954;9.506;2023-02-03T17:38:19;63.47;;;8.43;;
29314;SDS011;16320;53.954;9.506;2023-02-03T17:41:24;64.00;;;9.57;;
29314;SDS011;16320;53.954;9.506;2023-02-03T17:44:48;51.05;;;8.25;;
29314;SDS011;16320;53.954;9.506;2023-02-03T17:48:11;66.38;;;8.73;;
29314;SDS011;16320;53.954;9.506;2023-02-03T17:51:33;68.88;;;10.15;;
29314;SDS011;16320;53.954;9.506;2023-02-03T17:54:56;77.30;;;10.95;;
29314;SDS011;16320;53.954;9.506;2023-02-03T17:58:00;54.60;;;8.07;;
29314;SDS011;16320;53.954;9.506;2023-02-03T18:01:11;64.50;;;9.07;;
29314;SDS011;16320;53.954;9.506;2023-02-03T18:04:20;61.00;;;8.73;;
29314;SDS011;16320;53.954;9.506;2023-02-03T18:07:24;53.72;;;7.70;;
29314;SDS011;16320;53.954;9.506;2023-02-03T18:10:28;36.08;;;5.47;;
29314;SDS011;16320;53.954;9.506;2023-02-03T18:13:37;49.10;;;6.53;;
29314;SDS011;16320;53.954;9.506;2023-02-03T18:16:43;56.58;;;7.75;;
29314;SDS011;16320;53.954;9.506;2023-02-03T18:19:49;49.55;;;7.03;;
29314;SDS011;16320;53.954;9.506;2023-02-03T18:22:59;50.45;;;7.20;;
29314;SDS011;16320;53.954;9.506;2023-02-03T18:26:03;42.88;;;6.25;;
29314;SDS011;16320;53.954;9.506;2023-02-03T18:29:10;60.22;;;7.45;;
29314;SDS011;16320;53.954;9.506;2023-02-03T18:32:15;49.85;;;6.43;;
29314;SDS011;16320;53.954;9.506;2023-02-03T18:35:19;53.85;;;7.57;;
29314;SDS011;16320;53.954;9.506;2023-02-03T18:38:24;63.63;;;7.80;;
29314;SDS011;16320;53.954;9.506;2023-02-03T18:41:29;62.25;;;8.35;;
29314;SDS011;16320;53.954;9.506;2023-02-03T18:44:33;65.07;;;7.22;;
29314;SDS011;16320;53.954;9.506;2023-02-03T18:47:38;57.88;;;7.13;;
29314;SDS011;16320;53.954;9.506;2023-02-03T18:50:42;39.42;;;6.93;;
29314;SDS011;16320;53.954;9.506;2023-02-03T18:53:47;40.75;;;6.00;;
29314;SDS011;16320;53.954;9.506;2023-02-03T18:56:52;45.38;;;5.72;;
29314;SDS011;16320;53.954;9.506;2023-02-03T18:59:57;44.30;;;6.15;;
29314;SDS011;16320;53.954;9.506;2023-02-03T19:03:01;45.30;;;6.95;;
29314;SDS011;16320;53.954;9.506;2023-02-03T19:06:09;41.42;;;5.97;;
29314;SDS011;16320;53.954;9.506;2023-02-03T19:09:14;40.05;;;4.55;;
29314;SDS011;16320;53.954;9.506;2023-02-03T19:12:20;33.72;;;4.18;;
29314;SDS011;16320;53.954;9.506;2023-02-03T19:15:25;33.45;;;3.97;;
29314;SDS011;16320;53.954;9.506;2023-02-03T19:18:30;26.13;;;3.65;;
29314;SDS011;16320;53.954;9.506;2023-02-03T19:21:35;30.23;;;3.10;;
29314;SDS011;16320;53.954;9.506;2023-02-03T19:24:40;32.45;;;3.35;;
29314;SDS011;16320;53.954;9.506;2023-02-03T19:27:44;22.92;;;3.08;;
29314;SDS011;16320;53.954;9.506;2023-02-03T19:30:48;26.63;;;2.53;;
29314;SDS011;16320;53.954;9.506;2023-02-03T19:34:02;32.25;;;3.22;;
29314;SDS011;16320;53.954;9.506;2023-02-03T19:37:08;20.77;;;4.60;;
29314;SDS011;16320;53.954;9.506;2023-02-03T19:40:13;21.13;;;2.83;;
29314;SDS011;16320;53.954;9.506;2023-02-03T19:43:18;21.67;;;2.95;;
29314;SDS011;16320;53.954;9.506;2023-02-03T19:46:22;21.55;;;3.33;;
29314;SDS011;16320;53.954;9.506;2023-02-03T19:49:28;19.92;;;2.50;;
29314;SDS011;16320;53.954;9.506;2023-02-03T19:52:32;18.15;;;2.63;;
29314;SDS011;16320;53.954;9.506;2023-02-03T19:55:37;16.75;;;1.83;;
29314;SDS011;16320;53.954;9.506;2023-02-03T19:58:41;20.77;;;3.45;;
29314;SDS011;16320;53.954;9.506;2023-02-03T20:01:48;15.85;;;2.58;;
29314;SDS011;16320;53.954;9.506;2023-02-03T20:04:52;9.80;;;1.80;;
29314;SDS011;16320;53.954;9.506;2023-02-03T20:07:57;13.02;;;2.28;;
29314;SDS011;16320;53.954;9.506;2023-02-03T20:11:01;13.57;;;2.08;;
29314;SDS011;16320;53.954;9.506;2023-02-03T20:14:05;13.18;;;1.92;;
29314;SDS011;16320;53.954;9.506;2023-02-03T20:17:09;10.88;;;1.00;;
29314;SDS011;16320;53.954;9.506;2023-02-03T20:20:14;10.82;;;1.67;;
29314;SDS011;16320;53.954;9.506;2023-02-03T20:23:23;8.52;;;1.45;;
29314;SDS011;16320;53.954;9.506;2023-02-03T20:26:27;12.75;;;1.55;;
29314;SDS011;16320;53.954;9.506;2023-02-03T20:29:32;7.28;;;2.03;;
29314;SDS011;16320;53.954;9.506;2023-02-03T20:32:37;8.35;;;1.90;;
29314;SDS011;16320;53.954;9.506;2023-02-03T20:35:42;3.08;;;1.17;;
29314;SDS011;16320;53.954;9.506;2023-02-03T20:38:46;7.53;;;2.13;;
29314;SDS011;16320;53.954;9.506;2023-02-03T20:41:51;3.88;;;1.00;;
29314;SDS011;16320;53.954;9.506;2023-02-03T20:44:55;0.65;;;0.60;;
29314;SDS011;16320;53.954;9.506;2023-02-03T20:48:00;3.85;;;1.10;;
29314;SDS011;16320;53.954;9.506;2023-02-03T20:51:09;2.28;;;0.60;;
29314;SDS011;16320;53.954;9.506;2023-02-03T20:54:20;3.28;;;0.77;;